Time;durP1;ratioP1;P1;durP2;ratioP2;P2;SDS_P1;SDS_P2;PMS_P1;PMS_P2;Temp;Humidity;BMP_temperature;BMP_pressure;BME280_temperature;BME280_humidity;BME280_pressure;Samples;Min_cycle;Max_cycle;Signal;HPM_P1;HPM_P2
2023/04/11 00:02:03;;;;;;;5.40;4.50;;;11.10;99.90;;;10.43;80.57;100251.13;5093398;28;20189;-75
2023/04/11 00:04:37;;;;;;;5.13;4.20;;;11.10;99.90;;;10.49;81.17;100237.03;5093258;28;20209;-75
2023/04/11 00:07:09;;;;;;;4.73;3.97;;;11.10;99.90;;;10.46;81.23;100232.03;5092962;28;20220;-75
2023/04/11 00:09:43;;;;;;;4.33;3.73;;;11.10;99.90;;;10.36;81.71;100220.69;5093328;28;20185;-75
2023/04/11 00:12:15;;;;;;;4.37;3.70;;;11.00;99.90;;;10.29;81.27;100225.06;5093258;28;20184;-75
2023/04/11 00:14:52;;;;;;;4.70;4.00;;;10.90;99.90;;;10.28;81.61;100228.72;5093282;28;20193;-75
2023/04/11 00:17:30;;;;;;;6.33;3.80;;;10.90;99.90;;;10.18;82.10;100217.38;5093159;28;20234;-75
2023/04/11 00:20:06;;;;;;;5.73;4.07;;;10.80;99.90;;;10.16;82.06;100192.66;5093212;28;20193;-75
2023/04/11 00:22:38;;;;;;;5.03;3.80;;;10.80;99.90;;;10.35;81.08;100141.41;5094932;28;20192;-75
2023/04/11 00:25:11;;;;;;;4.97;3.87;;;10.90;99.90;;;10.42;80.98;100099.59;5096987;28;20189;-75
2023/04/11 00:27:43;;;;;;;4.53;3.40;;;11.00;99.90;;;10.54;80.09;100063.41;5096850;28;20224;-74
2023/04/11 00:30:15;;;;;;;4.70;3.60;;;11.10;99.90;;;10.58;79.91;100077.28;5096888;28;20196;-74
2023/04/11 00:32:48;;;;;;;3.80;3.40;;;11.10;99.90;;;10.55;80.15;100083.78;5096828;28;20197;-75
2023/04/11 00:35:22;;;;;;;4.77;3.57;;;11.10;99.90;;;10.55;80.01;100030.25;5096539;28;20660;-75
2023/04/11 00:38:02;;;;;;;5.97;3.33;;;11.10;99.90;;;10.57;79.94;100062.22;5096667;28;20223;-75
2023/04/11 00:40:34;;;;;;;4.00;3.60;;;11.00;99.90;;;10.34;81.49;100113.03;5097264;28;20216;-75
2023/04/11 00:43:06;;;;;;;5.23;3.40;;;10.90;99.90;;;10.29;81.66;100118.03;5096570;28;20205;-75
2023/04/11 00:45:39;;;;;;;5.10;3.57;;;10.90;99.90;;;10.12;82.09;100113.72;5096295;28;20200;-75
2023/04/11 00:48:11;;;;;;;3.80;3.13;;;10.70;99.90;;;10.14;81.76;100138.47;5096436;28;20251;-75
2023/04/11 00:50:45;;;;;;;3.73;3.20;;;10.80;99.90;;;10.02;81.73;100142.50;5096518;28;20185;-75
2023/04/11 00:53:20;;;;;;;4.47;3.30;;;10.60;99.90;;;10.00;82.33;100153.38;5096109;28;20660;-75
2023/04/11 00:55:52;;;;;;;4.00;3.27;;;10.60;99.90;;;9.86;82.39;100174.63;5096371;28;20192;-75
2023/04/11 00:58:25;;;;;;;4.93;3.47;;;10.50;99.90;;;9.92;82.33;100171.28;5095979;28;20294;-75
2023/04/11 01:00:57;;;;;;;4.93;3.13;;;10.50;99.90;;;9.99;82.42;100174.94;5096465;28;20209;-75
2023/04/11 01:03:29;;;;;;;4.47;3.23;;;10.60;99.90;;;9.95;82.42;100182.47;5096204;28;20209;-75
2023/04/11 01:06:05;;;;;;;3.40;3.10;;;10.50;99.90;;;10.10;81.87;100187.97;5096188;28;20196;-75
2023/04/11 01:08:43;;;;;;;4.23;3.10;;;10.70;99.90;;;9.91;81.86;100185.66;5096150;28;20192;-75
2023/04/11 01:11:18;;;;;;;3.43;3.13;;;10.60;99.90;;;9.85;82.71;100191.69;5095788;28;20196;-75
2023/04/11 01:13:52;;;;;;;3.90;3.50;;;10.50;99.90;;;9.82;82.46;100195.53;5096119;28;20287;-75
2023/04/11 01:16:24;;;;;;;5.50;3.37;;;10.50;99.90;;;9.80;82.42;100199.34;5095659;28;20691;-75
2023/04/11 01:18:57;;;;;;;4.33;3.00;;;10.40;99.90;;;9.65;83.00;100197.38;5096080;28;20193;-75
2023/04/11 01:21:31;;;;;;;5.03;3.10;;;10.30;99.90;;;9.65;82.33;100194.72;5096712;28;20197;-75
2023/04/11 01:24:04;;;;;;;3.60;2.97;;;10.30;99.90;;;9.71;82.17;100195.03;5095725;28;20215;-75
2023/04/11 01:26:36;;;;;;;3.10;2.80;;;10.30;99.90;;;9.70;81.86;100196.84;5095692;28;20221;-74
2023/04/11 01:29:08;;;;;;;5.47;3.20;;;10.30;99.90;;;9.59;81.84;100190.00;5095760;28;20189;-75
2023/04/11 01:31:41;;;;;;;3.37;2.83;;;10.30;99.90;;;9.57;81.58;100188.50;5095333;28;20600;-75
2023/04/11 01:34:15;;;;;;;4.40;2.60;;;10.20;99.90;;;9.49;81.90;100181.31;5094916;28;20181;-75
2023/04/11 01:36:49;;;;;;;3.47;2.70;;;10.20;99.90;;;9.45;82.32;100182.66;5095261;28;20626;-74
2023/04/11 01:39:23;;;;;;;3.40;2.40;;;10.10;99.90;;;9.50;82.49;100177.66;5095254;28;20199;-74
2023/04/11 01:41:56;;;;;;;4.07;2.80;;;10.20;99.90;;;9.56;82.03;100185.00;5095558;28;20243;-76
2023/04/11 01:44:30;;;;;;;3.13;2.80;;;10.30;99.90;;;9.50;82.20;100180.34;5095369;28;20282;-76
2023/04/11 01:47:02;;;;;;;3.87;2.83;;;10.20;99.90;;;9.59;82.08;100184.66;5095334;28;20247;-75
2023/04/11 01:49:34;;;;;;;4.20;2.50;;;10.20;99.90;;;9.56;82.09;100176.97;5095373;28;20189;-75
2023/04/11 01:52:06;;;;;;;4.60;2.87;;;10.20;99.90;;;9.61;82.12;100166.66;5095306;28;20197;-75
2023/04/11 01:54:39;;;;;;;3.93;2.50;;;10.30;99.90;;;9.71;80.90;100166.47;5095251;28;20192;-75
2023/04/11 01:57:11;;;;;;;3.07;2.50;;;10.30;99.90;;;9.73;80.85;100167.13;5094822;28;20712;-75
2023/04/11 01:59:43;;;;;;;3.37;2.53;;;10.30;99.90;;;9.76;80.95;100173.97;5094744;28;20680;-75
2023/04/11 02:02:24;;;;;;;3.13;2.50;;;10.30;99.90;;;9.81;80.65;100176.97;5094817;28;20202;-75
2023/04/11 02:04:56;;;;;;;2.77;2.40;;;10.40;99.90;;;9.79;80.82;100158.44;5095019;28;20220;-74
2023/04/11 02:07:28;;;;;;;2.80;2.50;;;10.40;99.90;;;9.84;80.53;100161.44;5094988;28;20236;-75
2023/04/11 02:10:02;;;;;;;2.37;2.17;;;10.40;99.90;;;9.76;80.14;100152.59;5094944;28;20188;-75
2023/04/11 02:12:34;;;;;;;2.97;2.07;;;10.40;99.90;;;9.65;80.06;100145.75;5094922;28;20193;-75
2023/04/11 02:15:06;;;;;;;2.77;2.30;;;10.30;99.90;;;9.72;79.92;100140.56;5094866;28;20192;-75
2023/04/11 02:17:43;;;;;;;3.30;2.00;;;10.30;99.90;;;9.79;79.53;100136.22;5094728;28;20235;-75
2023/04/11 02:20:16;;;;;;;3.30;1.90;;;10.40;99.90;;;9.60;78.49;100132.88;5094766;28;20201;-75
2023/04/11 02:22:47;;;;;;;2.30;1.90;;;10.20;99.90;;;9.53;79.15;100121.19;5094419;28;20714;-76
2023/04/11 02:25:21;;;;;;;2.17;1.77;;;10.20;99.90;;;9.57;79.07;100124.38;5094586;28;20224;-75
2023/04/11 02:27:53;;;;;;;1.93;1.57;;;10.20;99.90;;;9.63;78.61;100111.16;5094219;28;20573;-75
2023/04/11 02:30:25;;;;;;;3.60;1.73;;;10.20;99.90;;;9.65;78.13;100093.16;5094616;28;20200;-75
2023/04/11 02:32:56;;;;;;;2.33;1.80;;;10.20;99.90;;;9.61;78.70;100086.47;5094539;28;20189;-75
2023/04/11 02:35:30;;;;;;;2.50;1.80;;;10.20;99.90;;;9.50;77.93;100092.16;5094170;28;20653;-76
2023/04/11 02:38:03;;;;;;;2.00;1.67;;;10.10;99.90;;;9.38;77.27;100085.50;5095303;28;20238;-75
2023/04/11 02:40:36;;;;;;;1.70;1.57;;;10.00;99.90;;;9.30;78.01;100090.00;5094080;28;20649;-75
2023/04/11 02:43:08;;;;;;;2.50;1.57;;;10.00;99.90;;;9.36;78.03;100081.31;5094062;28;20653;-75
2023/04/11 02:45:41;;;;;;;2.33;1.80;;;10.00;99.90;;;9.26;78.12;100083.31;5094206;28;20260;-75
2023/04/11 02:48:13;;;;;;;2.90;1.60;;;9.90;99.90;;;9.22;77.72;100074.81;5094183;28;20229;-75
2023/04/11 02:50:45;;;;;;;2.83;1.70;;;9.90;99.90;;;9.14;77.13;100080.16;5094207;28;20238;-75
2023/04/11 02:53:20;;;;;;;2.63;1.77;;;9.80;99.90;;;9.23;77.33;100081.81;5094112;28;20236;-75
2023/04/11 02:55:57;;;;;;;3.13;1.73;;;9.90;99.90;;;9.11;76.78;100069.78;5094139;28;20188;-75
2023/04/11 02:58:37;;;;;;;1.97;1.50;;;9.80;99.90;;;9.19;77.29;100075.16;5093785;28;20235;-74
2023/04/11 03:01:10;;;;;;;3.87;1.60;;;9.80;99.90;;;9.22;77.44;100064.13;5094053;28;20196;-75
2023/04/11 03:03:44;;;;;;;2.13;1.70;;;9.80;99.90;;;9.07;76.95;100068.47;5094005;28;20189;-75
2023/04/11 03:06:19;;;;;;;2.27;1.67;;;9.80;99.90;;;9.03;77.43;100059.97;5093849;28;20273;-74
2023/04/11 03:08:51;;;;;;;2.33;1.70;;;9.70;99.90;;;8.99;77.48;100068.47;5093991;28;20195;-74
2023/04/11 03:11:26;;;;;;;3.50;1.60;;;9.70;99.90;;;8.94;77.61;100071.63;5093877;28;20224;-74
2023/04/11 03:13:59;;;;;;;2.10;1.47;;;9.70;99.90;;;8.94;77.72;100079.63;5093876;28;20197;-74
2023/04/11 03:16:35;;;;;;;1.60;1.30;;;9.60;99.90;;;8.94;77.18;100068.13;5093764;28;20315;-74
2023/04/11 03:19:07;;;;;;;2.93;1.60;;;9.60;99.90;;;8.97;77.44;100070.50;5093789;28;20196;-74
2023/04/11 03:21:39;;;;;;;2.00;1.40;;;9.60;99.90;;;8.90;77.29;100080.16;5093747;28;20193;-74
2023/04/11 03:24:12;;;;;;;3.80;1.63;;;9.60;99.90;;;8.92;77.36;100089.66;5093656;28;20185;-74
2023/04/11 03:26:45;;;;;;;4.97;1.80;;;9.60;99.90;;;8.91;77.25;100095.16;5093693;28;20233;-74
2023/04/11 03:29:19;;;;;;;3.93;2.00;;;9.60;99.90;;;8.90;77.14;100090.84;5093732;28;20193;-74
2023/04/11 03:31:53;;;;;;;2.83;1.70;;;9.60;99.90;;;8.92;77.15;100097.66;5093722;28;20196;-74
2023/04/11 03:34:27;;;;;;;3.93;1.70;;;9.60;99.90;;;8.93;77.57;100098.50;5093774;28;20564;-74
2023/04/11 03:37:02;;;;;;;3.80;1.93;;;9.60;99.90;;;8.94;77.03;100086.81;5093605;28;20231;-74
2023/04/11 03:39:34;;;;;;;4.00;1.53;;;9.60;99.90;;;8.98;77.54;100096.16;5093334;28;20189;-74
2023/04/11 03:42:07;;;;;;;4.57;1.80;;;9.70;99.90;;;9.06;77.54;100165.59;5093613;28;20283;-74
2023/04/11 03:44:39;;;;;;;3.63;1.10;;;9.70;99.90;;;8.80;72.96;100154.22;5093486;28;20220;-74
2023/04/11 03:47:13;;;;;;;7.63;1.90;;;9.50;99.50;;;8.57;73.05;100157.47;5093173;28;20633;-74
2023/04/11 03:49:45;;;;;;;5.03;1.70;;;9.30;99.30;;;8.60;73.06;100138.47;5093521;28;20185;-74
2023/04/11 03:52:17;;;;;;;3.77;1.57;;;9.30;99.60;;;8.65;72.64;100152.16;5093211;28;20197;-74
2023/04/11 03:54:49;;;;;;;4.37;1.63;;;9.40;99.30;;;8.69;71.89;100144.69;5093487;28;20258;-74
2023/04/11 03:57:25;;;;;;;3.47;1.53;;;9.40;99.10;;;8.61;71.20;100155.31;5094822;28;20224;-74
2023/04/11 03:59:57;;;;;;;2.37;1.50;;;9.30;98.80;;;8.51;72.27;100160.78;5097102;28;20227;-74
2023/04/11 04:02:29;;;;;;;5.03;1.77;;;9.20;99.20;;;8.51;71.31;100152.78;5097481;28;20195;-75
2023/04/11 04:05:01;;;;;;;2.80;1.63;;;9.20;98.90;;;8.55;72.20;100158.63;5097379;28;20247;-75
2023/04/11 04:07:34;;;;;;;4.27;2.30;;;9.20;99.20;;;8.44;71.50;100145.56;5097103;28;20590;-76
2023/04/11 04:10:06;;;;;;;3.80;1.80;;;9.10;98.80;;;8.46;71.81;100146.28;5097409;28;20193;-75
2023/04/11 04:12:41;;;;;;;4.73;1.57;;;9.10;99.40;;;8.27;71.82;100147.31;5097371;28;20192;-75
2023/04/11 04:15:13;;;;;;;4.83;1.77;;;9.00;98.80;;;8.21;72.27;100152.44;5097259;28;20184;-75
2023/04/11 04:17:45;;;;;;;5.17;2.13;;;8.90;99.20;;;8.20;72.69;100156.09;5096788;28;20587;-75
2023/04/11 04:20:18;;;;;;;4.63;2.07;;;8.90;99.30;;;8.22;72.85;100152.28;5097192;28;20189;-75
2023/04/11 04:22:52;;;;;;;5.10;2.00;;;8.90;99.40;;;8.18;73.20;100155.44;5097236;28;20197;-74
2023/04/11 04:25:24;;;;;;;4.47;1.90;;;8.90;99.50;;;8.23;73.24;100151.28;5096973;28;20215;-74
2023/04/11 04:27:59;;;;;;;8.13;2.30;;;8.90;99.70;;;8.17;74.86;100151.94;5096968;28;20232;-74
2023/04/11 04:30:31;;;;;;;5.77;2.27;;;8.80;99.90;;;8.21;74.17;100150.63;5096900;28;20567;-76
2023/04/11 04:33:03;;;;;;;5.80;2.40;;;8.90;99.90;;;8.06;75.86;100153.03;5096909;28;20211;-75
2023/04/11 04:35:35;;;;;;;9.23;3.00;;;8.80;99.90;;;7.99;76.85;100143.16;5096900;28;20185;-75
2023/04/11 04:38:16;;;;;;;7.73;3.97;;;8.80;99.90;;;8.01;77.34;100147.34;5096759;28;20232;-76
2023/04/11 04:40:48;;;;;;;11.80;4.13;;;8.70;99.90;;;7.97;77.84;100146.00;5096748;28;20199;-74
2023/04/11 04:43:31;;;;;;;8.23;3.60;;;8.70;99.90;;;8.08;78.37;100142.22;5096364;28;20292;-75
2023/04/11 04:46:02;;;;;;;10.60;3.40;;;8.80;99.90;;;8.04;78.46;100144.38;5096560;28;20243;-75
2023/04/11 04:48:34;;;;;;;6.43;2.77;;;8.80;99.90;;;8.03;78.56;100149.84;5096329;28;20189;-74
2023/04/11 04:51:09;;;;;;;10.43;3.07;;;8.70;99.90;;;8.01;79.74;100152.66;5096539;28;20238;-74
2023/04/11 04:53:41;;;;;;;7.50;3.00;;;8.70;99.90;;;8.01;79.28;100154.53;5096549;28;20562;-74
2023/04/11 04:56:13;;;;;;;12.37;3.20;;;8.70;99.90;;;7.96;79.25;100154.16;5096441;28;20273;-74
2023/04/11 04:58:46;;;;;;;11.40;3.13;;;8.70;99.90;;;8.02;78.22;100146.34;5096144;28;20209;-74
2023/04/11 05:01:19;;;;;;;16.93;3.23;;;8.70;99.90;;;8.10;77.74;100140.22;5097146;28;20569;-74
2023/04/11 05:03:58;;;;;;;7.60;2.60;;;8.80;99.90;;;8.06;77.21;100145.03;5098477;28;20272;-74
2023/04/11 05:06:32;;;;;;;8.90;2.90;;;8.80;99.90;;;7.98;77.14;100146.84;5096131;28;20232;-74
2023/04/11 05:09:05;;;;;;;7.17;2.40;;;8.70;99.90;;;8.00;78.31;100151.00;5095136;28;20533;-74
2023/04/11 05:11:37;;;;;;;9.40;2.70;;;8.70;99.90;;;8.00;77.82;100144.84;5096239;28;20189;-75
2023/04/11 05:14:10;;;;;;;11.83;3.03;;;8.70;99.90;;;7.91;78.07;100145.81;5095852;28;20695;-75
2023/04/11 05:16:44;;;;;;;10.57;2.43;;;8.60;99.90;;;7.86;78.19;100148.09;5100330;28;20224;-74
2023/04/11 05:19:16;;;;;;;7.63;2.60;;;8.60;99.90;;;7.90;78.47;100144.97;5104296;28;20212;-73
2023/04/11 05:21:48;;;;;;;5.93;2.70;;;8.60;99.90;;;7.92;78.82;100150.97;5103578;28;20204;-75
2023/04/11 05:24:20;;;;;;;8.20;2.93;;;8.60;99.90;;;7.93;78.77;100159.78;5103724;28;20196;-73
2023/04/11 05:26:52;;;;;;;7.57;2.67;;;8.60;99.90;;;7.94;79.04;100156.16;5097691;28;20236;-72
2023/04/11 05:29:26;;;;;;;7.30;2.80;;;8.60;99.90;;;7.92;78.58;100163.44;5095868;28;20554;-73
2023/04/11 05:31:58;;;;;;;7.70;2.77;;;8.60;99.90;;;7.94;78.64;100177.47;5095787;28;20194;-73
2023/04/11 05:34:33;;;;;;;12.53;3.57;;;8.70;99.90;;;7.98;78.80;100173.50;5095737;28;20203;-73
2023/04/11 05:37:05;;;;;;;8.80;3.20;;;8.70;99.90;;;8.03;79.45;100171.19;5095587;28;20271;-75
2023/04/11 05:39:37;;;;;;;8.70;2.97;;;8.70;99.90;;;8.09;78.70;100189.22;5095300;28;20193;-75
2023/04/11 05:42:09;;;;;;;14.53;6.83;;;8.80;99.90;;;8.11;79.78;100195.22;5095535;28;20220;-75
2023/04/11 05:44:42;;;;;;;11.47;4.57;;;8.80;99.90;;;8.06;79.69;100192.19;5095638;28;20218;-75
2023/04/11 05:47:14;;;;;;;11.33;5.00;;;8.80;99.90;;;8.05;80.37;100186.03;5095364;28;20239;-75
2023/04/11 05:49:47;;;;;;;13.00;5.13;;;8.80;99.90;;;7.95;81.55;100179.97;5095484;28;20247;-75
2023/04/11 05:52:19;;;;;;;11.83;4.80;;;8.70;99.90;;;7.91;81.79;100188.44;5095392;28;20192;-75
2023/04/11 05:54:51;;;;;;;12.77;5.37;;;8.60;99.90;;;7.87;82.56;100192.41;5094977;28;20594;-75
2023/04/11 05:57:22;;;;;;;10.60;4.87;;;8.60;99.90;;;7.89;82.84;100201.06;5095213;28;20243;-75
2023/04/11 05:59:56;;;;;;;9.70;3.60;;;8.60;99.90;;;7.75;81.15;100209.63;5094819;28;20216;-75
2023/04/11 06:02:28;;;;;;;7.17;3.40;;;8.50;99.90;;;7.67;81.16;100207.75;5095275;28;20189;-75
2023/04/11 06:05:00;;;;;;;6.37;2.60;;;8.50;99.90;;;7.45;82.12;100209.06;5095122;28;20224;-75
2023/04/11 06:07:32;;;;;;;5.33;2.43;;;8.20;99.90;;;7.46;81.90;100194.78;5094657;28;20707;-75
2023/04/11 06:10:04;;;;;;;8.83;2.50;;;8.20;99.90;;;7.40;81.97;100207.84;5095027;28;20196;-75
2023/04/11 06:12:36;;;;;;;4.83;1.97;;;8.20;99.90;;;7.42;81.94;100196.06;5095038;28;20193;-75
2023/04/11 06:15:14;;;;;;;3.17;1.80;;;8.20;99.90;;;7.34;81.22;100190.66;5094773;28;20315;-74
2023/04/11 06:17:46;;;;;;;7.60;2.70;;;8.10;99.90;;;7.25;81.18;100185.41;5093208;28;20221;-74
2023/04/11 06:20:18;;;;;;;5.63;2.30;;;8.00;99.90;;;7.35;82.02;100181.69;5094501;28;20189;-74
2023/04/11 06:22:52;;;;;;;5.60;2.13;;;8.10;99.90;;;7.35;81.73;100181.69;5094254;28;20610;-76
2023/04/11 06:25:24;;;;;;;7.07;2.53;;;8.10;99.90;;;7.35;81.36;100189.69;5094453;28;20751;-76
2023/04/11 06:27:56;;;;;;;8.50;2.73;;;8.10;99.90;;;7.38;80.92;100186.69;5094139;28;20237;-75
2023/04/11 06:30:29;;;;;;;4.50;2.50;;;8.20;99.90;;;7.46;81.58;100202.75;5094159;28;20239;-75
2023/04/11 06:33:01;;;;;;;10.40;2.50;;;8.20;99.90;;;7.53;81.45;100210.97;5094545;28;20185;-76
2023/04/11 06:35:33;;;;;;;3.00;2.10;;;8.30;99.90;;;7.50;80.63;100217.41;5094203;28;20232;-76
2023/04/11 06:38:05;;;;;;;5.60;2.60;;;8.20;99.90;;;7.59;80.09;100226.34;5094382;28;20229;-76
2023/04/11 06:40:37;;;;;;;4.60;2.30;;;8.30;99.90;;;7.53;80.27;100229.63;5094441;28;20189;-75
2023/04/11 06:43:10;;;;;;;4.20;2.63;;;8.30;99.90;;;7.58;80.46;100230.81;5094406;28;20185;-76
2023/04/11 06:45:43;;;;;;;5.83;2.43;;;8.30;99.90;;;7.55;81.82;100239.13;5094349;28;20238;-76
2023/04/11 06:48:16;;;;;;;8.33;2.90;;;8.30;99.90;;;7.61;82.77;100224.34;5093748;28;20236;-76
2023/04/11 06:50:50;;;;;;;6.30;2.40;;;8.30;99.90;;;7.55;82.90;100231.13;5094034;28;20193;-75
2023/04/11 06:53:21;;;;;;;8.73;5.43;;;8.30;99.90;;;7.43;82.59;100224.34;5093980;28;20199;-75
2023/04/11 06:55:53;;;;;;;16.63;8.70;;;8.20;99.90;;;7.43;82.00;100224.34;5093653;28;20639;-75
2023/04/11 06:58:25;;;;;;;27.87;13.93;;;8.20;99.90;;;7.35;82.01;100208.31;5093535;28;20233;-75
2023/04/11 07:00:58;;;;;;;19.33;11.00;;;8.20;99.90;;;7.29;81.92;100222.25;5093554;28;20189;-75
2023/04/11 07:03:31;;;;;;;15.60;7.97;;;8.10;99.90;;;7.29;82.06;100219.59;5093907;28;20193;-74
2023/04/11 07:06:03;;;;;;;9.40;6.27;;;8.00;99.90;;;7.27;82.78;100224.19;5093815;28;20193;-63
2023/04/11 07:08:35;;;;;;;9.50;6.10;;;8.00;99.90;;;7.34;82.08;100235.09;5093614;28;20185;-77
2023/04/11 07:11:07;;;;;;;4.57;2.77;;;8.00;99.90;;;7.31;81.94;100236.22;5094272;28;20198;-78
2023/04/11 07:13:39;;;;;;;5.57;2.33;;;8.10;99.90;;;7.42;81.63;100244.00;5094589;28;20192;-78
2023/04/11 07:16:14;;;;;;;6.10;1.90;;;8.10;99.90;;;7.32;82.54;100243.25;5093887;28;20197;-78
2023/04/11 07:18:46;;;;;;;3.67;1.87;;;8.10;99.90;;;7.34;82.48;100241.25;5094353;28;20189;-78
2023/04/11 07:21:18;;;;;;;4.07;1.90;;;8.00;99.90;;;7.27;82.85;100240.19;5093835;28;20196;-78
2023/04/11 07:23:51;;;;;;;5.13;1.93;;;8.00;99.90;;;7.34;82.66;100243.91;5093898;28;20200;-78
2023/04/11 07:26:26;;;;;;;4.87;1.80;;;8.10;99.90;;;7.29;82.83;100248.88;5093765;28;20189;-77
2023/04/11 07:28:57;;;;;;;6.17;2.37;;;8.00;99.90;;;7.32;82.90;100253.03;5093788;28;20203;-78
2023/04/11 07:31:31;;;;;;;7.17;2.60;;;8.10;99.90;;;7.33;82.68;100247.56;5093031;28;20193;-78
2023/04/11 07:34:03;;;;;;;7.53;2.80;;;8.10;99.90;;;7.32;83.00;100253.88;5093684;28;20199;-78
2023/04/11 07:36:34;;;;;;;6.23;2.30;;;8.10;99.90;;;7.42;81.76;100249.31;5093603;28;20224;-77
2023/04/11 07:39:08;;;;;;;4.33;1.80;;;8.20;99.90;;;7.38;81.19;100250.63;5093703;28;20189;-78
2023/04/11 07:41:40;;;;;;;3.40;1.80;;;8.10;99.90;;;7.44;82.30;100254.47;5093667;28;20283;-78
2023/04/11 07:44:12;;;;;;;4.93;2.40;;;8.10;99.90;;;7.48;81.83;100258.53;5093549;28;20193;-77
2023/04/11 07:46:45;;;;;;;5.43;2.40;;;8.20;99.90;;;7.48;81.70;100256.69;5096461;28;20228;-77
2023/04/11 07:49:17;;;;;;;4.97;2.40;;;8.20;99.90;;;7.49;81.91;100263.72;5093550;28;20196;-77
2023/04/11 07:51:49;;;;;;;5.23;3.80;;;8.20;99.90;;;7.53;81.50;100270.38;5093537;28;20257;-77
2023/04/11 07:54:23;;;;;;;7.67;3.00;;;8.30;99.90;;;7.54;81.43;100277.41;5093495;28;20196;-77
2023/04/11 07:56:55;;;;;;;4.53;2.53;;;8.30;99.90;;;7.61;81.82;100270.47;5093427;28;20261;-77
2023/04/11 07:59:27;;;;;;;5.43;2.53;;;8.30;99.90;;;7.68;81.51;100275.19;5093124;28;20212;-78
2023/04/11 08:02:05;;;;;;;9.00;2.13;;;8.40;99.90;;;7.71;81.40;100278.38;5093434;28;20201;-78
2023/04/11 08:04:38;;;;;;;8.03;2.30;;;8.40;99.90;;;7.74;81.24;100279.91;5093472;28;20196;-78
2023/04/11 08:07:10;;;;;;;6.97;2.60;;;8.50;99.90;;;7.78;80.78;100283.94;5093328;28;20278;-78
2023/04/11 08:09:42;;;;;;;7.87;2.90;;;8.50;99.90;;;7.83;80.51;100286.97;5093096;28;20197;-78
2023/04/11 08:12:15;;;;;;;9.83;3.10;;;8.60;99.90;;;7.87;81.03;100283.03;5093364;28;20188;-78
2023/04/11 08:14:47;;;;;;;8.10;3.10;;;8.60;99.90;;;7.93;81.40;100291.25;5093090;28;20563;-78
2023/04/11 08:17:24;;;;;;;7.53;2.87;;;8.60;99.90;;;7.90;79.03;100288.88;5093278;28;20220;-77
2023/04/11 08:20:00;;;;;;;8.13;3.10;;;8.60;99.90;;;7.99;79.99;100293.28;5093442;28;20196;-78
2023/04/11 08:22:33;;;;;;;7.50;3.20;;;8.70;99.90;;;8.13;80.51;100294.56;5092944;28;20608;-78
2023/04/11 08:25:07;;;;;;;7.80;3.30;;;8.80;99.90;;;8.20;80.45;100290.28;5092987;28;20192;-77
2023/04/11 08:27:38;;;;;;;9.53;3.77;;;8.90;99.90;;;8.26;79.60;100304.81;5093217;28;20225;-78
2023/04/11 08:30:13;;;;;;;8.83;3.27;;;9.00;99.90;;;8.29;78.62;100297.34;5093264;28;20190;-78
2023/04/11 08:32:46;;;;;;;5.90;3.20;;;9.00;99.90;;;8.34;79.59;100308.41;5092928;28;20644;-77
2023/04/11 08:35:18;;;;;;;6.23;3.20;;;9.00;99.90;;;8.36;78.29;100306.41;5092899;28;20238;-77
2023/04/11 08:37:50;;;;;;;4.50;3.10;;;9.10;99.90;;;8.44;77.66;100292.28;5093072;28;20225;-77
2023/04/11 08:40:22;;;;;;;6.97;3.00;;;9.10;99.90;;;8.51;77.04;100302.19;5093067;28;20189;-77
2023/04/11 08:43:02;;;;;;;7.93;2.90;;;9.30;99.90;;;8.59;78.22;100291.56;5093521;28;20235;-77
2023/04/11 08:45:34;;;;;;;5.57;3.00;;;9.30;99.90;;;8.59;76.43;100312.91;5097296;28;20185;-78
2023/04/11 08:48:09;;;;;;;7.27;3.57;;;9.30;99.90;;;8.58;75.99;100311.22;5096160;28;20232;-67
2023/04/11 08:50:41;;;;;;;7.07;2.90;;;9.30;99.90;;;8.63;76.52;100303.56;5096157;28;20571;-64
2023/04/11 08:53:14;;;;;;;4.53;2.97;;;9.30;99.90;;;8.64;77.19;100299.06;5096154;28;20645;-62
2023/04/11 08:55:49;;;;;;;8.80;3.53;;;9.30;99.90;;;8.63;75.84;100302.75;5096383;28;20236;-63
2023/04/11 08:58:22;;;;;;;7.83;3.47;;;9.30;99.90;;;8.64;76.08;100302.59;5094983;28;20597;-63
2023/04/11 09:00:54;;;;;;;11.93;3.53;;;9.30;99.90;;;8.65;75.79;100300.75;5096241;28;20215;-64
2023/04/11 09:03:27;;;;;;;11.63;3.30;;;9.40;99.90;;;8.64;76.85;100297.25;5096303;28;20185;-75
2023/04/11 09:06:08;;;;;;;8.13;3.10;;;9.40;99.90;;;8.64;77.07;100296.41;5096312;28;20288;-75
2023/04/11 09:08:42;;;;;;;9.07;3.90;;;9.30;99.90;;;8.60;76.90;100306.56;5096178;28;20216;-74
2023/04/11 09:11:14;;;;;;;8.70;3.63;;;9.30;99.90;;;8.51;77.04;100304.00;5095950;28;20702;-74
2023/04/11 09:13:47;;;;;;;5.93;3.13;;;9.30;99.90;;;8.47;76.98;100307.97;5096651;28;20189;-76
2023/04/11 09:16:20;;;;;;;7.80;2.90;;;9.20;99.90;;;8.47;77.57;100295.50;5096128;28;20208;-74
2023/04/11 09:18:54;;;;;;;6.83;2.93;;;9.20;99.90;;;8.48;76.29;100310.50;5096068;28;20210;-75
2023/04/11 09:21:26;;;;;;;7.90;2.80;;;9.20;99.90;;;8.48;76.79;100307.00;5095954;28;20189;-75
2023/04/11 09:24:13;;;;;;;9.57;3.20;;;9.20;99.90;;;8.50;78.21;100313.84;5096001;28;20197;-75
2023/04/11 09:26:46;;;;;;;7.93;3.37;;;9.20;99.90;;;8.44;79.35;100306.47;5095814;28;20228;-76
2023/04/11 09:29:38;;;;;;;7.13;3.43;;;9.20;99.90;;;8.31;80.28;100308.72;5095798;28;20209;-76
2023/04/11 09:32:26;;;;;;;7.63;3.73;;;9.00;99.90;;;8.39;80.20;100308.75;5095722;28;20220;-75
2023/04/11 09:35:17;;;;;;;7.40;3.80;;;9.10;99.90;;;8.42;79.88;100311.16;5094968;28;20207;-75
2023/04/11 09:37:52;;;;;;;6.40;3.80;;;9.10;99.90;;;8.53;80.45;100313.53;5095698;28;20319;-75
2023/04/11 09:40:30;;;;;;;7.17;3.07;;;9.20;99.90;;;8.59;78.22;100309.41;5095659;28;20200;-75
2023/04/11 09:43:05;;;;;;;7.97;2.80;;;9.30;99.90;;;8.79;77.41;100308.19;5095653;28;20185;-75
2023/04/11 09:45:37;;;;;;;5.40;2.70;;;9.50;99.90;;;9.00;73.59;100313.13;5095550;28;20193;-75
2023/04/11 09:48:25;;;;;;;8.23;2.60;;;9.70;99.90;;;9.14;70.30;100312.50;5095402;28;20597;-75
2023/04/11 09:51:19;;;;;;;5.93;2.40;;;9.80;98.40;;;9.11;70.04;100307.47;5095163;28;20669;-75
2023/04/11 09:54:08;;;;;;;8.10;2.83;;;9.80;98.00;;;9.20;71.20;100303.84;5095104;28;20279;-75
2023/04/11 09:56:41;;;;;;;9.20;2.40;;;9.90;98.70;;;9.22;69.71;100319.69;5094951;28;20224;-74
2023/04/11 09:59:14;;;;;;;4.80;2.37;;;9.90;98.10;;;9.19;70.40;100347.56;5094934;28;20220;-75
2023/04/11 10:01:47;;;;;;;3.33;2.00;;;9.90;98.20;;;9.06;72.74;100357.88;5094761;28;20193;-75
2023/04/11 10:04:20;;;;;;;5.57;1.67;;;9.70;99.10;;;8.72;75.29;100351.66;5094857;28;20641;-75
2023/04/11 10:07:07;;;;;;;4.77;1.70;;;9.50;99.90;;;8.62;74.31;100346.44;5095034;28;20216;-75
2023/04/11 10:09:45;;;;;;;5.00;1.70;;;9.30;99.90;;;8.62;75.18;100349.97;5094911;28;20304;-75
2023/04/11 10:12:32;;;;;;;3.40;1.90;;;9.30;99.90;;;8.47;77.36;100364.84;5094958;28;20201;-76
2023/04/11 10:15:10;;;;;;;4.60;1.90;;;9.10;99.90;;;8.36;77.54;100359.75;5094902;28;20189;-75
2023/04/11 10:18:04;;;;;;;6.77;2.20;;;9.00;99.90;;;8.36;76.56;100381.09;5094986;28;20223;-75
2023/04/11 10:20:46;;;;;;;4.10;2.20;;;9.00;99.90;;;8.33;76.50;100369.91;5094845;28;20272;-76
2023/04/11 10:23:19;;;;;;;4.43;1.80;;;9.00;99.90;;;8.39;75.56;100363.97;5094737;28;20201;-75
2023/04/11 10:26:00;;;;;;;4.67;1.83;;;9.10;99.90;;;8.43;74.59;100359.97;5094471;28;20698;-76
2023/04/11 10:28:40;;;;;;;4.83;1.80;;;9.10;99.90;;;8.44;72.25;100362.50;5094534;28;20232;-76
2023/04/11 10:31:12;;;;;;;3.43;2.17;;;9.10;99.10;;;8.48;71.51;100361.19;5094621;28;20197;-75
2023/04/11 10:34:14;;;;;;;7.73;2.60;;;9.20;99.10;;;8.48;69.09;100355.88;5094256;28;20193;-75
2023/04/11 10:37:04;;;;;;;6.60;2.57;;;9.20;98.50;;;8.55;70.18;100351.56;5095030;28;20230;-75
2023/04/11 10:40:10;;;;;;;7.03;2.73;;;9.20;98.30;;;8.63;69.63;100356.94;5094446;28;20180;-75
2023/04/11 10:42:45;;;;;;;10.47;2.80;;;9.30;98.00;;;8.75;69.60;100362.88;5094447;28;20185;-76
2023/04/11 10:45:26;;;;;;;4.27;1.80;;;9.40;97.90;;;8.90;69.55;100355.97;5094423;28;20216;-75
2023/04/11 10:48:12;;;;;;;8.10;2.10;;;9.60;97.80;;;9.09;70.40;100360.22;5094139;28;20228;-75
2023/04/11 10:50:47;;;;;;;4.00;2.40;;;9.80;98.40;;;9.16;68.48;100353.22;5093504;28;20212;-76
2023/04/11 10:53:39;;;;;;;5.13;2.00;;;9.80;97.00;;;9.29;69.06;100350.09;5093928;28;20193;-76